Decoded Metar for KAUO (AUBURN OPELIKA A in AL, USA) (IATA:AUO) | Meteo·Mobile Aviation Weather
aviador You're here:

KAUO Decoded Metar

AUBURN OPELIKA A in AL, USA
Report Time2018-09-21 10:56:00
UTC Time2018-09-21 11:29:24
Flight Rules vfr VFR
Wind110° at 05 kt
W.Decomp.*RWY 11: 5.0 kt HW 0.3 kt RCW
RWY 18: 2.0 kt HW 4.6 kt LCW
W.Rank110° ranks 26
Current wind is below 110° avg. (5.4)
Visibility9999 m
Phenomena:N/A
Clouds:Broken 120 Hf
Expected CloudBase > 800 ft AGL from Temp-Dew spread
Ceiling12,000 ft
Temp23°C (ISA +10)
Dew Point21°C (89% RH)
QNH1021 hPa
Density Alt1,946 ft
Elevation776 ft
Report Wrong Elevation
Raw Report
METAR KAUO 211056Z AUTO 11005KT 10SM BKN120 23/21 A3016 RMK AO2 SLP220
T02280211=

Extra information for KAUO:More info

Metar Taf Metar & Taf Last 4 Metars F.Rules Stats Wind Profile Meteogram Temp Stats Airport Information Weather charts Add Link Nearby VenuesMetar ALERT Operation Metar Decoded Social comments

AIRNAV info for KAUO